Time;durP1;ratioP1;P1;durP2;ratioP2;P2;SDS_P1;SDS_P2;PMS_P1;PMS_P2;Temp;Humidity;BMP_temperature;BMP_pressure;BME280_temperature;BME280_humidity;BME280_pressure;Samples;Min_cycle;Max_cycle;Signal;HPM_P1;HPM_P2
2023/02/06 00:00:37;;;;;;;34.78;9.52;;;4.20;90.50;;;;;;5084871;28;20039;-76
2023/02/06 00:03:04;;;;;;;40.35;8.73;;;4.20;90.50;;;;;;5085576;28;20053;-76
2023/02/06 00:05:29;;;;;;;38.65;8.82;;;4.20;90.50;;;;;;5086001;28;20024;-76
2023/02/06 00:07:55;;;;;;;35.88;7.72;;;4.30;90.60;;;;;;5085332;28;20039;-76
2023/02/06 00:10:21;;;;;;;34.08;7.63;;;4.30;90.70;;;;;;5086718;28;20778;-76
2023/02/06 00:12:47;;;;;;;35.30;6.75;;;4.30;90.80;;;;;;5087048;28;20399;-77
2023/02/06 00:15:12;;;;;;;35.38;7.07;;;4.40;90.70;;;;;;5085843;28;20024;-76
2023/02/06 00:17:38;;;;;;;28.77;6.50;;;4.40;90.80;;;;;;5066971;28;20541;-76
2023/02/06 00:20:05;;;;;;;32.72;8.10;;;4.40;90.70;;;;;;5089377;28;20067;-76
2023/02/06 00:22:31;;;;;;;40.58;9.15;;;4.40;90.70;;;;;;5083913;28;20051;-76
2023/02/06 00:24:57;;;;;;;52.58;10.50;;;4.50;90.60;;;;;;5086315;28;20032;-76
2023/02/06 00:27:23;;;;;;;39.38;9.45;;;4.40;90.60;;;;;;5088171;28;20055;-76
2023/02/06 00:29:49;;;;;;;38.47;8.93;;;4.50;90.70;;;;;;5086437;28;20426;-76
2023/02/06 00:32:14;;;;;;;47.15;9.35;;;4.40;90.60;;;;;;5065136;28;20048;-76
2023/02/06 00:34:40;;;;;;;35.70;7.60;;;4.50;90.70;;;;;;5087070;28;20048;-76
2023/02/06 00:37:05;;;;;;;37.47;8.80;;;4.50;90.80;;;;;;5086145;28;20036;-76
2023/02/06 00:39:31;;;;;;;38.25;8.48;;;4.50;90.80;;;;;;5086722;28;20040;-76
2023/02/06 00:41:57;;;;;;;36.47;7.22;;;4.40;90.70;;;;;;5087028;28;20380;-76
2023/02/06 00:44:23;;;;;;;39.67;7.57;;;4.40;90.90;;;;;;5068446;28;20032;-76
2023/02/06 00:46:48;;;;;;;45.17;7.78;;;4.40;91.00;;;;;;5084033;28;20040;-76
2023/02/06 00:49:14;;;;;;;38.90;7.70;;;4.40;91.10;;;;;;5086698;28;20048;-76
2023/02/06 00:51:40;;;;;;;42.33;8.38;;;4.50;91.10;;;;;;5063112;28;20108;-76
2023/02/06 00:54:07;;;;;;;37.30;7.85;;;4.50;91.10;;;;;;5090414;28;20024;-76
2023/02/06 00:56:33;;;;;;;35.38;7.15;;;4.50;91.10;;;;;;5079154;28;20407;-76
2023/02/06 00:58:59;;;;;;;48.28;8.10;;;4.50;91.20;;;;;;5081204;28;20026;-76
2023/02/06 01:01:25;;;;;;;34.80;7.15;;;4.50;91.20;;;;;;5084584;28;20067;-76
2023/02/06 01:03:51;;;;;;;39.63;6.93;;;4.50;91.30;;;;;;5084521;28;20036;-76
2023/02/06 01:06:18;;;;;;;44.60;8.07;;;4.50;91.30;;;;;;5064449;28;20043;-76
2023/02/06 01:08:43;;;;;;;33.63;7.82;;;4.50;91.40;;;;;;5067027;28;20016;-76
2023/02/06 01:11:16;;;;;;;38.28;7.32;;;4.40;91.40;;;;;;5086296;28;20054;-77
2023/02/06 01:13:42;;;;;;;39.65;8.70;;;4.50;91.50;;;;;;5085611;28;20023;-76
2023/02/06 01:16:14;;;;;;;49.45;9.35;;;4.40;91.40;;;;;;5079128;28;20480;-76
2023/02/06 01:18:40;;;;;;;31.67;6.65;;;4.50;91.50;;;;;;5086429;28;21283;-76
2023/02/06 01:21:08;;;;;;;42.25;7.72;;;4.50;91.40;;;;;;5085032;28;20510;-76
2023/02/06 01:23:34;;;;;;;38.80;8.30;;;4.50;91.30;;;;;;5078108;28;20118;-76
2023/02/06 01:26:04;;;;;;;41.72;8.80;;;4.50;91.40;;;;;;5086826;28;20479;-76
2023/02/06 01:28:29;;;;;;;42.92;7.57;;;4.40;91.50;;;;;;5082622;28;20124;-76
2023/02/06 01:30:55;;;;;;;33.65;7.30;;;4.40;91.40;;;;;;5078286;28;20495;-76
2023/02/06 01:33:21;;;;;;;32.75;7.40;;;4.40;91.40;;;;;;5089433;28;20024;-76
2023/02/06 01:35:54;;;;;;;29.75;7.40;;;4.30;91.40;;;;;;5084563;28;20384;-76
2023/02/06 01:38:20;;;;;;;43.47;7.53;;;4.30;91.40;;;;;;5085423;28;20602;-76
2023/02/06 01:40:45;;;;;;;40.13;8.23;;;4.30;91.40;;;;;;5087888;28;20447;-76
2023/02/06 01:43:17;;;;;;;42.67;7.43;;;4.30;91.40;;;;;;5086378;28;20077;-76
2023/02/06 01:45:45;;;;;;;40.50;7.82;;;4.30;91.50;;;;;;5066097;28;20051;-76
2023/02/06 01:48:15;;;;;;;42.55;7.82;;;4.30;91.50;;;;;;5080403;28;20035;-76
2023/02/06 01:50:45;;;;;;;31.08;6.97;;;4.30;91.50;;;;;;5067408;28;20031;-77
2023/02/06 01:53:13;;;;;;;32.83;7.20;;;4.20;91.60;;;;;;5065461;28;20035;-77
2023/02/06 01:55:41;;;;;;;34.85;7.32;;;4.20;91.60;;;;;;5089129;28;20042;-76
2023/02/06 01:58:10;;;;;;;31.50;6.00;;;4.20;91.60;;;;;;5085487;28;20476;-76
2023/02/06 02:00:36;;;;;;;34.17;7.32;;;4.20;91.70;;;;;;5084998;28;20035;-76
2023/02/06 02:03:03;;;;;;;35.92;7.53;;;4.20;91.70;;;;;;5092692;28;20028;-76
2023/02/06 02:05:31;;;;;;;44.58;8.48;;;4.20;91.80;;;;;;5107978;28;20031;-76
2023/02/06 02:08:14;;;;;;;35.05;7.65;;;4.20;91.80;;;;;;5093145;28;20030;-76
2023/02/06 02:10:40;;;;;;;35.90;8.18;;;4.20;91.80;;;;;;5092195;28;20068;-76
2023/02/06 02:13:06;;;;;;;24.25;5.47;;;4.20;91.70;;;;;;5066565;28;20508;-76
2023/02/06 02:15:53;;;;;;;36.42;7.75;;;4.20;91.70;;;;;;5080487;28;20059;-76
2023/02/06 02:18:19;;;;;;;33.97;6.93;;;4.20;91.70;;;;;;5080333;28;20048;-76
2023/02/06 02:20:51;;;;;;;30.90;5.63;;;4.10;91.70;;;;;;5081755;28;20412;-76
2023/02/06 02:23:44;;;;;;;28.52;6.93;;;4.10;91.80;;;;;;5082111;28;20032;-76
2023/02/06 02:26:20;;;;;;;28.67;6.78;;;4.20;91.90;;;;;;5082838;28;20043;-77
2023/02/06 02:29:07;;;;;;;31.45;6.63;;;4.20;91.90;;;;;;5084359;28;20138;-76
2023/02/06 02:32:02;;;;;;;24.13;6.53;;;4.20;91.90;;;;;;5082781;28;20132;-76
2023/02/06 02:34:43;;;;;;;30.55;6.38;;;4.20;91.90;;;;;;5082475;28;20042;-76
2023/02/06 02:37:18;;;;;;;26.40;5.30;;;4.20;91.70;;;;;;5064323;28;20036;-76
2023/02/06 02:40:00;;;;;;;30.38;7.40;;;4.10;91.70;;;;;;5080974;28;20580;-76
2023/02/06 02:42:31;;;;;;;26.65;6.55;;;4.10;91.60;;;;;;5058220;28;20384;-76
2023/02/06 02:45:11;;;;;;;25.88;6.65;;;4.10;91.60;;;;;;5084153;28;20078;-76
2023/02/06 02:47:49;;;;;;;32.58;6.53;;;4.10;91.50;;;;;;5079392;28;20028;-76
2023/02/06 02:50:17;;;;;;;30.00;6.53;;;4.10;91.50;;;;;;5059048;28;20483;-76
2023/02/06 02:52:45;;;;;;;26.15;5.50;;;4.10;91.40;;;;;;5060139;28;20052;-76
2023/02/06 02:55:16;;;;;;;30.50;7.50;;;4.00;91.40;;;;;;5060911;28;20110;-76
2023/02/06 02:57:43;;;;;;;25.00;6.00;;;4.00;91.30;;;;;;5063928;28;20043;-76
2023/02/06 03:00:10;;;;;;;27.70;6.40;;;4.00;91.20;;;;;;5062264;28;20116;-76
2023/02/06 03:02:37;;;;;;;25.55;5.78;;;4.00;91.20;;;;;;5059429;28;20068;-76
2023/02/06 03:05:07;;;;;;;24.50;6.82;;;3.90;91.10;;;;;;5060941;28;20108;-75
2023/02/06 03:07:54;;;;;;;25.80;5.78;;;3.90;91.10;;;;;;5063854;28;20036;-75
2023/02/06 03:10:41;;;;;;;19.88;5.15;;;3.90;91.10;;;;;;5058467;28;20021;-75
2023/02/06 03:13:28;;;;;;;20.40;5.95;;;3.80;91.10;;;;;;5060922;28;20080;-75
2023/02/06 03:16:27;;;;;;;23.83;6.15;;;3.80;91.10;;;;;;5054636;28;20389;-75
2023/02/06 03:19:02;;;;;;;27.52;5.97;;;3.80;91.10;;;;;;5066920;28;20028;-75
2023/02/06 03:21:28;;;;;;;30.33;6.85;;;3.70;91.10;;;;;;5055948;28;20033;-76
2023/02/06 03:23:58;;;;;;;28.05;7.03;;;3.70;91.10;;;;;;5066951;28;20025;-75
2023/02/06 03:26:27;;;;;;;23.23;6.35;;;3.70;91.10;;;;;;5061887;28;20488;-75
2023/02/06 03:28:57;;;;;;;24.98;5.82;;;3.60;91.10;;;;;;5066531;28;20093;-75
2023/02/06 03:31:56;;;;;;;20.95;5.93;;;3.60;91.10;;;;;;5059265;28;20041;-75
2023/02/06 03:34:55;;;;;;;24.73;7.05;;;3.60;91.10;;;;;;5063697;28;20048;-75
2023/02/06 03:37:23;;;;;;;21.15;5.72;;;3.50;91.00;;;;;;5041427;28;20187;-75
2023/02/06 03:39:49;;;;;;;25.40;6.40;;;3.50;91.00;;;;;;5055808;28;20357;-76
2023/02/06 03:42:16;;;;;;;25.20;6.75;;;3.40;91.00;;;;;;5062222;28;20098;-75
2023/02/06 03:44:49;;;;;;;24.58;6.13;;;3.40;90.90;;;;;;5064125;28;20055;-75
2023/02/06 03:47:17;;;;;;;26.77;6.30;;;3.40;91.00;;;;;;5077131;28;20127;-75
2023/02/06 03:49:45;;;;;;;21.73;6.38;;;3.40;90.90;;;;;;5076084;28;20135;-75
2023/02/06 03:52:20;;;;;;;27.80;6.80;;;3.40;91.00;;;;;;5080353;28;20307;-75
2023/02/06 03:54:50;;;;;;;36.17;7.53;;;3.40;91.10;;;;;;5087351;28;20035;-75
2023/02/06 03:57:18;;;;;;;32.15;7.00;;;3.40;91.10;;;;;;5068719;28;20447;-75
2023/02/06 03:59:47;;;;;;;30.65;7.22;;;3.30;91.00;;;;;;5087948;28;20028;-75
2023/02/06 04:02:15;;;;;;;29.17;7.43;;;3.20;90.90;;;;;;5080920;28;20052;-75
2023/02/06 04:04:41;;;;;;;28.65;7.03;;;3.20;90.90;;;;;;5069560;28;20094;-75
2023/02/06 04:07:13;;;;;;;28.08;6.60;;;3.10;90.90;;;;;;5086604;28;20036;-75
2023/02/06 04:09:39;;;;;;;22.45;6.72;;;3.10;91.00;;;;;;5088225;28;20520;-75
2023/02/06 04:12:06;;;;;;;23.42;6.82;;;3.10;91.10;;;;;;5087285;28;20028;-75
2023/02/06 04:14:32;;;;;;;23.63;6.57;;;3.10;91.10;;;;;;5086347;28;20051;-75
2023/02/06 04:16:57;;;;;;;24.23;6.95;;;3.10;91.10;;;;;;5086743;28;20059;-75
2023/02/06 04:19:23;;;;;;;28.10;6.75;;;3.10;91.10;;;;;;5083194;28;20032;-75
2023/02/06 04:21:49;;;;;;;26.35;6.60;;;3.10;91.10;;;;;;5085798;28;20040;-75
2023/02/06 04:24:15;;;;;;;27.00;6.85;;;3.10;91.30;;;;;;5083401;28;20032;-76
2023/02/06 04:26:40;;;;;;;27.60;7.28;;;3.10;91.30;;;;;;5086017;28;20036;-76
2023/02/06 04:29:06;;;;;;;23.25;6.95;;;3.20;91.30;;;;;;5087041;28;20016;-76
2023/02/06 04:31:32;;;;;;;25.27;6.32;;;3.20;91.20;;;;;;5086478;28;20444;-76
2023/02/06 04:33:57;;;;;;;26.65;7.00;;;3.20;91.30;;;;;;5086831;28;20054;-76
2023/02/06 04:36:23;;;;;;;29.75;7.97;;;3.30;91.30;;;;;;5086640;28;20056;-75
2023/02/06 04:38:49;;;;;;;31.83;7.57;;;3.30;91.30;;;;;;5086037;28;20055;-76
2023/02/06 04:41:15;;;;;;;27.40;7.07;;;3.30;91.30;;;;;;5083974;28;20028;-76
2023/02/06 04:43:41;;;;;;;24.85;7.13;;;3.40;91.30;;;;;;5085678;28;20456;-76
2023/02/06 04:46:06;;;;;;;31.70;7.20;;;3.40;91.30;;;;;;5086058;28;20040;-76
2023/02/06 04:48:32;;;;;;;33.45;7.75;;;3.50;91.30;;;;;;5083348;28;20411;-76
2023/02/06 04:50:57;;;;;;;34.58;9.00;;;3.50;91.30;;;;;;5085788;28;20418;-76
2023/02/06 04:53:23;;;;;;;35.33;10.57;;;3.50;91.30;;;;;;5085886;28;20047;-76
2023/02/06 04:55:49;;;;;;;34.88;8.35;;;3.50;91.40;;;;;;5086288;28;20058;-75
2023/02/06 04:58:14;;;;;;;32.15;8.20;;;3.50;91.40;;;;;;5086478;28;20263;-76
2023/02/06 05:00:40;;;;;;;34.67;8.57;;;3.50;91.50;;;;;;5082999;28;20020;-76
2023/02/06 05:03:06;;;;;;;31.55;9.75;;;3.50;91.60;;;;;;5086745;28;20385;-76
2023/02/06 05:05:31;;;;;;;26.48;7.88;;;3.50;91.70;;;;;;5084309;28;20020;-76
2023/02/06 05:07:57;;;;;;;29.63;7.80;;;3.50;91.70;;;;;;5084067;28;20034;-76
2023/02/06 05:10:23;;;;;;;30.55;7.97;;;3.60;91.70;;;;;;5086765;28;20434;-76
2023/02/06 05:12:49;;;;;;;32.78;7.97;;;3.60;91.80;;;;;;5085494;28;20517;-75
2023/02/06 05:15:15;;;;;;;38.00;8.23;;;3.60;91.80;;;;;;5084081;28;20067;-76
2023/02/06 05:17:41;;;;;;;32.50;7.95;;;3.60;91.80;;;;;;5084696;28;20102;-76
2023/02/06 05:20:07;;;;;;;34.05;8.57;;;3.60;91.80;;;;;;5080482;28;20036;-76
2023/02/06 05:22:33;;;;;;;35.63;8.43;;;3.60;91.90;;;;;;5067868;28;20051;-76
2023/02/06 05:24:59;;;;;;;32.63;8.73;;;3.50;91.80;;;;;;5089193;28;20048;-75
2023/02/06 05:27:24;;;;;;;27.08;7.47;;;3.50;91.80;;;;;;5084905;28;20364;-76
2023/02/06 05:29:50;;;;;;;35.38;8.20;;;3.40;91.80;;;;;;5083979;28;20508;-75
2023/02/06 05:32:17;;;;;;;35.08;7.80;;;3.40;91.90;;;;;;5078498;28;20052;-76
2023/02/06 05:34:42;;;;;;;33.03;7.75;;;3.30;91.90;;;;;;5081208;28;20024;-75
2023/02/06 05:37:08;;;;;;;28.58;7.03;;;3.30;92.00;;;;;;5085094;28;20051;-75
2023/02/06 05:39:34;;;;;;;32.67;8.25;;;3.20;92.00;;;;;;5078224;28;20106;-75
2023/02/06 05:41:59;;;;;;;32.20;8.32;;;3.20;92.10;;;;;;5080985;28;20031;-75
2023/02/06 05:44:25;;;;;;;42.92;8.82;;;3.20;92.10;;;;;;5063323;28;20031;-76
2023/02/06 05:46:51;;;;;;;30.15;8.40;;;3.10;92.20;;;;;;5084143;28;20092;-75
2023/02/06 05:49:17;;;;;;;34.22;8.30;;;3.10;92.20;;;;;;5084445;28;20040;-75
2023/02/06 05:51:43;;;;;;;34.80;8.95;;;3.10;92.20;;;;;;5084672;28;20369;-76
2023/02/06 05:54:08;;;;;;;32.58;8.45;;;3.00;92.30;;;;;;5066464;28;20030;-75
2023/02/06 05:56:34;;;;;;;37.53;10.15;;;3.00;92.40;;;;;;5082928;28;20036;-76
2023/02/06 05:59:00;;;;;;;35.28;9.48;;;3.00;92.50;;;;;;5085880;28;20032;-75
2023/02/06 06:01:27;;;;;;;31.88;9.65;;;3.00;92.50;;;;;;5082042;28;20040;-76
2023/02/06 06:03:54;;;;;;;30.70;8.90;;;3.00;92.60;;;;;;5062637;28;20154;-75
2023/02/06 06:06:19;;;;;;;38.45;10.98;;;2.90;92.60;;;;;;5080410;28;20372;-75
2023/02/06 06:08:45;;;;;;;28.58;8.63;;;2.90;92.60;;;;;;5085854;28;20039;-75
2023/02/06 06:11:11;;;;;;;31.13;9.40;;;2.90;92.60;;;;;;5081519;28;20303;-76
2023/02/06 06:13:37;;;;;;;38.92;10.77;;;2.90;92.60;;;;;;5080163;28;20487;-76
2023/02/06 06:16:02;;;;;;;39.35;10.68;;;2.90;92.60;;;;;;5082645;28;20532;-76
2023/02/06 06:18:28;;;;;;;40.00;10.32;;;2.90;92.70;;;;;;5083313;28;20020;-76
2023/02/06 06:20:54;;;;;;;32.50;8.85;;;2.90;92.80;;;;;;5077903;28;20077;-77
2023/02/06 06:23:19;;;;;;;38.42;11.07;;;2.90;92.80;;;;;;5085070;28;20521;-76
2023/02/06 06:25:46;;;;;;;33.22;10.85;;;2.90;92.70;;;;;;5077624;28;20069;-77
2023/02/06 06:28:12;;;;;;;41.60;11.23;;;2.90;92.80;;;;;;5063122;28;20039;-76
2023/02/06 06:30:37;;;;;;;40.72;11.20;;;2.90;92.90;;;;;;5082216;28;20028;-76
2023/02/06 06:33:03;;;;;;;39.55;11.98;;;2.90;93.00;;;;;;5082434;28;20020;-76
2023/02/06 06:35:29;;;;;;;33.67;11.10;;;2.90;93.00;;;;;;5083149;28;20016;-75
2023/02/06 06:37:55;;;;;;;42.33;11.60;;;3.00;93.20;;;;;;5083686;28;20462;-76
2023/02/06 06:40:20;;;;;;;44.17;14.05;;;3.00;93.20;;;;;;5078905;28;20081;-76
2023/02/06 06:42:46;;;;;;;41.58;13.63;;;3.00;93.30;;;;;;5082963;28;20040;-77
2023/02/06 06:45:12;;;;;;;41.97;11.98;;;3.00;93.30;;;;;;5082940;28;20369;-76
2023/02/06 06:47:37;;;;;;;47.80;13.35;;;3.00;93.30;;;;;;5082547;28;20035;-76
2023/02/06 06:50:05;;;;;;;37.30;13.18;;;2.90;93.30;;;;;;5083005;28;20207;-76
2023/02/06 06:52:30;;;;;;;38.70;12.45;;;3.00;93.40;;;;;;5081794;28;20123;-76
2023/02/06 06:54:56;;;;;;;45.63;14.80;;;3.00;93.40;;;;;;5078242;28;20156;-76
2023/02/06 06:57:22;;;;;;;46.35;16.10;;;3.00;93.50;;;;;;5084009;28;20059;-76
2023/02/06 06:59:48;;;;;;;42.17;16.95;;;3.00;93.40;;;;;;5080235;28;20032;-76
2023/02/06 07:02:14;;;;;;;51.08;16.63;;;3.00;93.60;;;;;;5103974;28;20035;-76
2023/02/06 07:04:39;;;;;;;45.90;16.05;;;3.00;93.70;;;;;;5102838;28;20039;-76
2023/02/06 07:07:05;;;;;;;37.00;13.77;;;3.00;93.70;;;;;;5088729;28;20036;-76
2023/02/06 07:09:31;;;;;;;42.95;15.15;;;3.00;93.70;;;;;;5067506;28;20032;-76
2023/02/06 07:11:57;;;;;;;45.25;15.77;;;2.90;93.70;;;;;;5082496;28;20128;-76
2023/02/06 07:14:22;;;;;;;54.45;19.45;;;2.80;93.60;;;;;;5084337;28;20032;-76
2023/02/06 07:16:48;;;;;;;47.97;17.98;;;2.80;93.70;;;;;;5083307;28;20484;-76
2023/02/06 07:19:14;;;;;;;46.10;18.05;;;2.80;93.60;;;;;;5083020;28;20032;-76
2023/02/06 07:21:40;;;;;;;47.33;18.20;;;2.70;93.70;;;;;;5082548;28;20337;-76
2023/02/06 07:24:06;;;;;;;54.92;17.77;;;2.80;93.70;;;;;;5077723;28;20077;-76
2023/02/06 07:26:31;;;;;;;52.40;19.48;;;2.80;93.70;;;;;;5085538;28;20070;-77
2023/02/06 07:28:57;;;;;;;39.40;17.67;;;2.80;93.80;;;;;;5086806;28;20032;-75
2023/02/06 07:31:23;;;;;;;50.63;19.15;;;2.80;93.80;;;;;;5087788;28;20044;-76
2023/02/06 07:33:48;;;;;;;40.30;18.02;;;2.80;93.80;;;;;;5067896;28;20753;-75
2023/02/06 07:36:17;;;;;;;37.13;16.58;;;2.80;93.80;;;;;;5085008;28;20047;-76
2023/02/06 07:38:43;;;;;;;35.47;16.08;;;2.80;93.80;;;;;;5087438;28;20020;-76
2023/02/06 07:41:08;;;;;;;42.92;16.38;;;2.80;93.80;;;;;;5082577;28;20043;-76
2023/02/06 07:43:34;;;;;;;39.47;15.77;;;2.80;93.90;;;;;;5085309;28;20023;-74
2023/02/06 07:46:02;;;;;;;39.33;14.80;;;2.90;94.00;;;;;;5085997;28;20035;-79
2023/02/06 07:48:29;;;;;;;41.72;16.65;;;2.90;94.00;;;;;;5086785;28;20056;-78
2023/02/06 07:50:55;;;;;;;41.40;16.48;;;3.00;94.00;;;;;;5084757;28;20036;-79
2023/02/06 07:53:20;;;;;;;33.85;15.25;;;3.00;94.00;;;;;;5084907;28;20367;-78
2023/02/06 07:55:46;;;;;;;44.20;20.00;;;3.00;94.00;;;;;;5068189;28;20421;-78
2023/02/06 07:58:12;;;;;;;52.63;18.02;;;3.00;94.00;;;;;;5087299;28;20256;-78
2023/02/06 08:00:38;;;;;;;44.75;17.98;;;3.00;94.00;;;;;;5087147;28;20100;-78
2023/02/06 08:03:04;;;;;;;53.15;21.58;;;3.10;93.90;;;;;;5088200;28;20024;-78
2023/02/06 08:05:30;;;;;;;44.08;20.75;;;3.10;93.90;;;;;;5084271;28;20508;-79
2023/02/06 08:07:56;;;;;;;53.30;19.05;;;3.10;93.80;;;;;;5081100;28;20059;-78
2023/02/06 08:10:22;;;;;;;47.80;18.73;;;3.10;93.70;;;;;;5088302;28;20063;-78
2023/02/06 08:12:48;;;;;;;46.42;17.77;;;3.10;93.70;;;;;;5068086;28;20050;-78
2023/02/06 08:15:14;;;;;;;52.47;19.27;;;3.10;93.70;;;;;;5088114;28;20052;-77
2023/02/06 08:17:43;;;;;;;48.03;17.38;;;3.20;93.70;;;;;;5086704;28;20036;-81
2023/02/06 08:20:10;;;;;;;43.10;15.40;;;3.20;93.60;;;;;;5086821;28;20020;-80
2023/02/06 08:22:39;;;;;;;43.03;16.92;;;3.20;93.50;;;;;;5081780;28;20033;-81
2023/02/06 08:25:05;;;;;;;43.10;16.60;;;3.20;93.40;;;;;;5090816;28;20028;-81
2023/02/06 08:27:31;;;;;;;50.03;18.27;;;3.30;93.40;;;;;;5082387;28;20028;-80
2023/02/06 08:29:58;;;;;;;37.13;18.58;;;3.30;93.40;;;;;;5066040;28;20036;-79
2023/02/06 08:32:25;;;;;;;55.70;24.55;;;3.40;93.50;;;;;;5084866;28;20183;-79
2023/02/06 08:34:51;;;;;;;51.75;22.33;;;3.40;93.40;;;;;;5085963;28;20012;-80
2023/02/06 08:37:17;;;;;;;48.42;20.63;;;3.50;93.40;;;;;;5086489;28;20352;-79
2023/02/06 08:39:43;;;;;;;45.85;18.85;;;3.50;93.50;;;;;;5081718;28;20416;-79
2023/02/06 08:42:09;;;;;;;43.08;19.20;;;3.50;93.60;;;;;;5082883;28;20035;-79
2023/02/06 08:44:35;;;;;;;48.38;20.60;;;3.60;93.70;;;;;;5080223;28;20023;-78
2023/02/06 08:47:00;;;;;;;44.15;25.63;;;3.60;93.70;;;;;;5083340;28;20024;-80
2023/02/06 08:49:26;;;;;;;42.70;21.50;;;3.60;93.80;;;;;;5086688;28;20047;-79
2023/02/06 08:51:53;;;;;;;41.58;20.13;;;3.80;93.90;;;;;;5086053;28;20061;-80
2023/02/06 08:54:21;;;;;;;49.15;21.05;;;3.90;93.90;;;;;;5086343;28;20016;-79
2023/02/06 08:56:48;;;;;;;46.40;21.73;;;4.00;93.90;;;;;;5085199;28;20036;-78
2023/02/06 08:59:16;;;;;;;49.28;21.20;;;4.10;94.00;;;;;;5086419;28;20169;-79
2023/02/06 09:01:44;;;;;;;46.55;25.52;;;4.20;94.10;;;;;;5081936;28;20043;-79
2023/02/06 09:04:11;;;;;;;46.88;22.55;;;4.30;94.00;;;;;;5087219;28;20027;-79
2023/02/06 09:06:39;;;;;;;54.40;22.83;;;4.50;94.00;;;;;;5082977;28;20047;-78
2023/02/06 09:09:06;;;;;;;49.28;20.55;;;4.60;93.90;;;;;;5087067;28;20024;-78
2023/02/06 09:11:32;;;;;;;45.80;21.48;;;4.70;93.70;;;;;;5085713;28;20044;-78
2023/02/06 09:14:00;;;;;;;51.13;21.95;;;4.80;93.40;;;;;;5082048;28;20032;-77
2023/02/06 09:16:27;;;;;;;46.22;19.77;;;4.90;93.20;;;;;;5081221;28;20376;-77
2023/02/06 09:18:54;;;;;;;40.88;20.05;;;5.10;93.00;;;;;;5085668;28;20043;-78
2023/02/06 09:21:24;;;;;;;42.30;18.98;;;5.20;92.80;;;;;;5087592;28;20092;-78
2023/02/06 09:23:57;;;;;;;38.00;17.98;;;5.30;92.50;;;;;;5083350;28;20028;-79
2023/02/06 09:26:29;;;;;;;37.42;16.27;;;5.50;92.50;;;;;;5082085;28;20158;-79
2023/02/06 09:28:58;;;;;;;40.88;17.75;;;5.50;92.00;;;;;;5086093;28;20137;-79
2023/02/06 09:31:26;;;;;;;41.28;17.35;;;5.60;91.50;;;;;;5080440;28;20071;-79
2023/02/06 09:33:52;;;;;;;39.70;14.93;;;5.80;91.80;;;;;;5083851;28;20027;-79
2023/02/06 09:36:19;;;;;;;43.20;14.60;;;6.00;91.10;;;;;;5090976;28;20036;-79
2023/02/06 09:38:48;;;;;;;31.20;13.63;;;6.10;90.60;;;;;;5098561;28;20028;-80
2023/02/06 09:41:19;;;;;;;33.97;14.27;;;6.10;90.30;;;;;;5097641;28;20121;-79
2023/02/06 09:44:03;;;;;;;29.70;14.65;;;6.30;89.70;;;;;;5088418;28;20089;-79
2023/02/06 09:46:32;;;;;;;41.00;15.07;;;6.50;89.80;;;;;;5080336;28;20032;-78
2023/02/06 09:49:01;;;;;;;38.17;15.10;;;6.40;88.50;;;;;;5084222;28;20395;-80
2023/02/06 09:51:53;;;;;;;33.22;14.48;;;6.60;88.70;;;;;;5079216;28;20166;-79
2023/02/06 09:54:42;;;;;;;36.05;15.88;;;6.90;88.60;;;;;;5082739;28;20092;-79
2023/02/06 09:57:19;;;;;;;32.83;12.32;;;7.10;88.00;;;;;;5081572;28;20327;-80
2023/02/06 09:59:54;;;;;;;38.45;12.13;;;7.20;86.10;;;;;;5084845;28;20028;-82
2023/02/06 10:02:45;;;;;;;30.83;11.55;;;6.80;85.70;;;;;;5081642;28;20115;-82
2023/02/06 10:05:20;;;;;;;32.42;13.07;;;6.60;86.60;;;;;;5084506;28;20464;-78
2023/02/06 10:08:12;;;;;;;35.22;12.80;;;6.70;87.00;;;;;;5066549;28;20369;-79
2023/02/06 10:10:44;;;;;;;32.95;12.93;;;6.80;87.20;;;;;;5080769;28;20030;-79
2023/02/06 10:13:32;;;;;;;30.15;11.60;;;6.80;86.70;;;;;;5083892;28;20245;-79
2023/02/06 10:16:28;;;;;;;35.30;12.55;;;6.80;86.70;;;;;;5070636;28;20035;-80
2023/02/06 10:18:59;;;;;;;38.63;11.82;;;6.80;86.50;;;;;;5070879;28;20067;-79
2023/02/06 10:21:33;;;;;;;36.85;13.00;;;6.70;86.40;;;;;;5082304;28;20040;-81
2023/02/06 10:24:20;;;;;;;39.78;12.95;;;6.60;86.30;;;;;;5084226;28;20448;-79
2023/02/06 10:26:48;;;;;;;27.52;12.07;;;6.50;86.70;;;;;;5082119;28;20072;-78
2023/02/06 10:29:24;;;;;;;33.22;12.45;;;6.60;87.10;;;;;;5083541;28;20032;-79
2023/02/06 10:32:32;;;;;;;41.55;15.57;;;6.70;86.90;;;;;;5078965;28;20028;-80
2023/02/06 10:35:19;;;;;;;45.72;13.02;;;6.90;87.10;;;;;;5056257;28;20024;-80
2023/02/06 10:38:01;;;;;;;38.95;11.80;;;7.10;86.30;;;;;;5082564;28;20104;-80
2023/02/06 10:40:27;;;;;;;35.28;11.02;;;7.30;85.60;;;;;;5082889;28;20069;-79
2023/02/06 10:43:09;;;;;;;30.80;11.43;;;7.50;85.60;;;;;;5085517;28;20342;-78
2023/02/06 10:46:01;;;;;;;34.95;11.07;;;7.70;84.30;;;;;;5080683;28;20028;-80
2023/02/06 10:49:14;;;;;;;32.25;11.57;;;7.80;83.50;;;;;;5081976;28;20059;-81
2023/02/06 10:51:44;;;;;;;33.78;11.07;;;8.10;83.60;;;;;;5051453;28;20063;-80
2023/02/06 10:54:22;;;;;;;34.00;11.38;;;8.00;81.90;;;;;;5081586;28;20024;-79
2023/02/06 10:56:50;;;;;;;36.08;10.90;;;8.00;82.50;;;;;;5082562;28;20500;-79
2023/02/06 10:59:42;;;;;;;34.13;10.38;;;8.10;82.20;;;;;;5076737;28;20034;-79
2023/02/06 11:02:27;;;;;;;29.02;10.07;;;8.20;82.20;;;;;;5080527;28;20020;-79
2023/02/06 11:04:58;;;;;;;33.42;11.32;;;8.10;80.90;;;;;;5082721;28;20031;-79
2023/02/06 11:07:28;;;;;;;33.38;11.85;;;7.90;81.20;;;;;;5082778;28;20012;-80
2023/02/06 11:09:54;;;;;;;40.08;12.07;;;7.90;81.30;;;;;;5082310;28;20039;-79
2023/02/06 11:12:31;;;;;;;30.67;12.40;;;7.70;81.10;;;;;;5082554;28;20403;-79
2023/02/06 11:15:03;;;;;;;30.90;11.20;;;7.60;81.90;;;;;;5080725;28;20107;-79
2023/02/06 11:17:30;;;;;;;30.75;11.40;;;7.60;81.80;;;;;;5082214;28;20031;-82
2023/02/06 11:20:13;;;;;;;34.50;12.43;;;7.70;82.40;;;;;;5064412;28;20016;-83
2023/02/06 11:22:39;;;;;;;33.53;12.30;;;8.00;81.90;;;;;;5082173;28;20170;-84
2023/02/06 11:25:17;;;;;;;31.13;12.20;;;8.10;80.70;;;;;;5083330;28;20103;-82
2023/02/06 11:27:42;;;;;;;35.58;13.60;;;8.10;80.20;;;;;;5080350;28;20028;-82
2023/02/06 11:30:30;;;;;;;44.38;13.85;;;8.20;79.60;;;;;;5065501;28;20092;-83
2023/02/06 11:33:03;;;;;;;36.20;13.23;;;8.10;78.50;;;;;;5063611;28;20042;-83
2023/02/06 11:35:35;;;;;;;33.38;13.07;;;8.10;79.50;;;;;;5077124;28;20372;-82
2023/02/06 11:38:28;;;;;;;36.17;14.15;;;8.30;79.40;;;;;;5081788;28;20379;-81
2023/02/06 11:40:59;;;;;;;36.78;13.10;;;8.50;78.50;;;;;;5080578;28;20479;-82
2023/02/06 11:43:28;;;;;;;39.70;12.98;;;8.50;78.50;;;;;;5082094;28;20740;-81
2023/02/06 11:46:22;;;;;;;32.92;11.07;;;8.60;77.50;;;;;;5081980;28;20036;-80
2023/02/06 11:49:05;;;;;;;27.23;9.30;;;8.70;76.50;;;;;;5077011;28;20056;-82
2023/02/06 11:51:55;;;;;;;35.20;10.50;;;8.60;75.40;;;;;;5082374;28;20059;-82
2023/02/06 11:54:34;;;;;;;29.10;11.50;;;8.40;75.00;;;;;;5069560;28;20047;-79
2023/02/06 11:57:09;;;;;;;32.67;11.50;;;8.30;75.20;;;;;;5104201;28;20039;-76
2023/02/06 11:59:47;;;;;;;31.35;11.70;;;8.50;75.30;;;;;;5107175;28;20058;-79
2023/02/06 12:02:35;;;;;;;27.85;10.10;;;8.60;75.40;;;;;;5101253;28;20062;-80
2023/02/06 12:05:24;;;;;;;32.70;11.88;;;8.60;74.70;;;;;;5082995;28;20063;-79
2023/02/06 12:08:09;;;;;;;36.83;12.02;;;8.60;73.90;;;;;;5089648;28;20383;-82
2023/02/06 12:10:39;;;;;;;37.00;13.48;;;8.40;73.10;;;;;;5077967;28;20145;-80
2023/02/06 12:13:21;;;;;;;37.95;15.45;;;8.60;74.10;;;;;;5084393;28;20547;-79
2023/02/06 12:15:51;;;;;;;37.53;19.40;;;8.80;75.00;;;;;;5087321;28;20036;-80
2023/02/06 12:18:36;;;;;;;38.17;19.38;;;8.90;75.20;;;;;;5084884;28;20539;-79
2023/02/06 12:21:10;;;;;;;38.10;19.15;;;9.10;74.70;;;;;;5083928;28;20071;-80
2023/02/06 12:23:44;;;;;;;32.40;17.60;;;9.00;75.00;;;;;;5083265;28;20464;-80
2023/02/06 12:26:13;;;;;;;45.95;19.90;;;9.10;75.30;;;;;;5084445;28;20299;-80
2023/02/06 12:28:58;;;;;;;36.30;12.32;;;9.10;76.00;;;;;;5081931;28;20408;-80
2023/02/06 12:31:24;;;;;;;31.45;12.55;;;8.70;75.20;;;;;;5082903;28;20052;-81
2023/02/06 12:33:53;;;;;;;28.92;10.00;;;8.60;75.40;;;;;;5088735;28;20028;-78
2023/02/06 12:36:29;;;;;;;25.92;9.15;;;8.60;75.40;;;;;;5079567;28;20044;-80
2023/02/06 12:39:00;;;;;;;31.40;10.13;;;8.60;74.60;;;;;;5083331;28;20032;-78
2023/02/06 12:41:38;;;;;;;33.28;11.65;;;8.60;74.60;;;;;;5080811;28;20036;-79
2023/02/06 12:44:22;;;;;;;30.67;10.68;;;8.60;75.40;;;;;;5087949;28;20031;-79
2023/02/06 12:46:55;;;;;;;23.15;8.40;;;8.60;75.70;;;;;;5081341;28;20036;-79
2023/02/06 12:49:36;;;;;;;25.40;9.05;;;8.70;73.80;;;;;;5084370;28;20039;-77
2023/02/06 12:52:05;;;;;;;27.10;9.27;;;8.80;73.40;;;;;;5085368;28;20044;-79
2023/02/06 12:55:01;;;;;;;27.80;8.73;;;8.70;73.00;;;;;;5085697;28;20047;-80
2023/02/06 12:57:30;;;;;;;31.50;9.68;;;8.80;72.40;;;;;;5081749;28;20040;-79